createdAt,value
2022-08-20T00:01:02.109Z,55.52
2022-08-20T00:03:58.242Z,57.81
2022-08-20T00:07:11.721Z,67.29
2022-08-20T00:10:19.863Z,66.02
2022-08-20T00:13:26.671Z,63.09
2022-08-20T00:16:34.543Z,61.34
2022-08-20T00:19:39.853Z,56.39
2022-08-20T00:23:13.437Z,55.73
2022-08-20T00:26:17.687Z,57.27
2022-08-20T00:29:25.499Z,67.55
2022-08-20T00:32:33.638Z,66.67
2022-08-20T00:35:45.244Z,63.22
2022-08-20T00:38:50.868Z,61.70
2022-08-20T00:41:37.036Z,56.50
2022-08-20T00:44:44.548Z,55.92
2022-08-20T00:47:52.656Z,57.57
2022-08-20T00:50:54.555Z,66.90
2022-08-20T00:53:56.600Z,66.23
2022-08-20T00:56:58.689Z,63.27
2022-08-20T01:00:01.770Z,61.44
2022-08-20T01:03:09.289Z,56.63
2022-08-20T01:06:17.509Z,56.09
2022-08-20T01:09:33.453Z,64.86
2022-08-20T01:12:59.990Z,64.69
2022-08-20T01:16:06.584Z,62.79
2022-08-20T01:19:29.213Z,61.56
2022-08-20T01:22:36.977Z,61.33
2022-08-20T01:26:19.617Z,60.33
2022-08-20T01:29:28.657Z,55.79
2022-08-20T01:39:29.491Z,65.22
2022-08-20T01:42:59.488Z,63.07
2022-08-20T01:49:23.145Z,60.64
2022-08-20T01:52:31.556Z,56.15
2022-08-20T01:55:33.107Z,55.93
2022-08-20T01:58:39.758Z,64.42
2022-08-20T02:01:55.676Z,64.24
2022-08-20T02:05:01.421Z,61.74
2022-08-20T02:08:07.362Z,60.52
2022-08-20T02:11:28.640Z,56.49
2022-08-20T02:14:20.902Z,56.13
2022-08-20T02:17:27.829Z,64.92
2022-08-20T02:20:27.637Z,64.93
2022-08-20T02:23:35.312Z,62.54
2022-08-20T02:26:43.288Z,61.12
2022-08-20T02:29:51.315Z,60.42
2022-08-20T02:32:59.545Z,60.72
2022-08-20T02:36:02.716Z,56.53
2022-08-20T02:39:09.655Z,56.55
2022-08-20T02:42:20.876Z,66.25
2022-08-20T02:45:30.951Z,64.83
2022-08-20T02:48:52.478Z,63.21
2022-08-20T02:52:33.064Z,61.32
2022-08-20T02:56:09.599Z,60.56
2022-08-20T02:59:19.974Z,55.26
2022-08-20T03:02:30.659Z,55.99
2022-08-20T03:05:38.119Z,64.94
2022-08-20T03:08:51.067Z,64.58
2022-08-20T03:11:56.878Z,62.86
2022-08-20T03:15:05.791Z,61.33
2022-08-20T03:18:12.535Z,60.27
2022-08-20T03:24:45.906Z,55.82
2022-08-20T03:27:55.606Z,64.61
2022-08-20T03:31:20.374Z,64.57
2022-08-20T03:34:28.875Z,62.47
2022-08-20T03:37:35.266Z,60.67
2022-08-20T03:40:46.787Z,55.61
2022-08-20T03:43:56.654Z,56.06
2022-08-20T03:47:04.361Z,64.45
2022-08-20T03:50:22.696Z,65.11
2022-08-20T03:53:25.600Z,62.83
2022-08-20T03:59:58.570Z,56.17
2022-08-20T04:06:32.151Z,57.51
2022-08-20T04:09:38.610Z,67.89
2022-08-20T04:12:52.715Z,65.69
2022-08-20T04:16:08.299Z,62.06
2022-08-20T04:19:20.799Z,61.16
2022-08-20T04:22:52.313Z,56.97
2022-08-20T04:26:29.938Z,55.83
2022-08-20T04:29:38.229Z,65.37
2022-08-20T04:32:46.725Z,64.43
2022-08-20T04:44:00.536Z,61.80
2022-08-20T05:02:58.139Z,56.37
2022-08-20T05:05:28.501Z,56.45
2022-08-20T05:07:58.578Z,63.13
2022-08-20T05:10:28.239Z,65.25
2022-08-20T05:13:01.241Z,62.87
2022-08-20T05:15:30.417Z,61.18
2022-08-20T05:18:06.506Z,60.42
2022-08-20T05:20:41.968Z,60.73
2022-08-20T05:23:13.148Z,60.68
2022-08-20T05:25:44.686Z,56.75
2022-08-20T05:28:24.105Z,55.43
2022-08-20T05:30:54.818Z,57.39
2022-08-20T05:33:25.794Z,64.28
2022-08-20T05:35:56.051Z,65.08
2022-08-20T05:38:29.357Z,63.04
2022-08-20T05:40:58.380Z,62.26
2022-08-20T05:43:27.470Z,61.16
2022-08-20T05:45:58.962Z,60.68
2022-08-20T05:48:30.902Z,60.04
2022-08-20T05:51:00.177Z,59.81
2022-08-20T05:53:30.100Z,57.06
2022-08-20T05:55:59.915Z,56.81
2022-08-20T05:58:31.477Z,58.83
2022-08-20T06:01:00.690Z,66.06
2022-08-20T06:06:44.917Z,64.31
2022-08-20T06:09:08.426Z,62.76
2022-08-20T06:11:37.625Z,60.63
2022-08-20T06:14:06.803Z,60.66
2022-08-20T06:16:37.196Z,57.84
2022-08-20T06:19:10.305Z,57.28
2022-08-20T06:21:41.763Z,58.88
2022-08-20T06:24:10.874Z,66.39
2022-08-20T06:26:39.966Z,66.19
2022-08-20T06:29:08.871Z,63.53
2022-08-20T06:31:40.707Z,62.52
2022-08-20T06:34:09.906Z,61.41
2022-08-20T06:36:38.909Z,58.03
2022-08-20T06:39:07.797Z,56.68
2022-08-20T06:41:37.444Z,58.15
2022-08-20T06:44:08.230Z,64.94
2022-08-20T06:46:39.141Z,65.38
2022-08-20T06:49:09.213Z,62.40
2022-08-20T06:51:41.411Z,61.23
2022-08-20T06:54:10.488Z,60.63
2022-08-20T06:56:39.665Z,57.19
2022-08-20T06:59:08.666Z,56.07
2022-08-20T07:01:37.536Z,58.91
2022-08-20T07:04:08.059Z,64.40
2022-08-20T07:06:37.179Z,64.91
2022-08-20T07:09:06.109Z,61.97
2022-08-20T07:11:35.681Z,57.92
2022-08-20T07:14:06.014Z,56.28
2022-08-20T07:16:34.907Z,57.49
2022-08-20T07:19:04.212Z,62.99
2022-08-20T07:21:33.996Z,64.10
2022-08-20T07:24:04.446Z,61.54
2022-08-20T07:26:35.115Z,57.25
2022-08-20T07:29:04.773Z,55.32
2022-08-20T07:31:53.435Z,56.64
2022-08-20T07:34:22.620Z,58.52
2022-08-20T07:36:51.836Z,65.52
2022-08-20T07:39:21.830Z,65.19
2022-08-20T07:42:04.048Z,61.66
2022-08-20T07:44:34.371Z,56.54
2022-08-20T07:47:05.045Z,55.29
2022-08-20T07:49:38.789Z,56.55
2022-08-20T07:52:08.030Z,58.20
2022-08-20T07:54:38.598Z,64.67
2022-08-20T07:57:07.554Z,64.12
2022-08-20T07:59:37.183Z,57.68
2022-08-20T08:02:06.894Z,55.49
2022-08-20T08:04:37.544Z,56.13
2022-08-20T08:07:07.330Z,57.21
2022-08-20T08:09:36.838Z,58.77
2022-08-20T08:12:06.625Z,64.90
2022-08-20T08:14:37.662Z,64.89
2022-08-20T08:17:07.562Z,58.13
2022-08-20T08:19:44.769Z,54.91
2022-08-20T08:22:19.063Z,55.21
2022-08-20T08:24:57.069Z,57.02
2022-08-20T08:27:27.112Z,57.95
2022-08-20T08:29:56.305Z,58.67
2022-08-20T08:32:25.389Z,59.75
2022-08-20T08:34:55.523Z,65.07
2022-08-20T08:37:27.866Z,64.37
2022-08-20T08:40:01.017Z,56.95
2022-08-20T08:42:45.461Z,53.53
2022-08-20T08:45:17.707Z,53.42
2022-08-20T08:47:47.018Z,54.59
2022-08-20T08:50:53.891Z,55.76
2022-08-20T08:53:39.473Z,56.40
2022-08-20T08:56:10.434Z,58.27
2022-08-20T08:58:39.604Z,58.25
2022-08-20T09:01:55.465Z,59.99
2022-08-20T09:04:07.289Z,59.59
2022-08-20T09:06:37.187Z,60.34
2022-08-20T09:09:11.004Z,59.95
2022-08-20T09:11:54.145Z,60.42
2022-08-20T09:14:27.546Z,60.67
2022-08-20T09:16:57.043Z,60.44
2022-08-20T09:19:26.466Z,61.02
2022-08-20T09:21:55.539Z,60.65
2022-08-20T09:24:25.479Z,60.01
2022-08-20T09:26:54.347Z,59.82
2022-08-20T09:29:23.451Z,60.11
2022-08-20T09:32:05.129Z,60.05
2022-08-20T09:34:38.433Z,59.92
2022-08-20T09:37:08.477Z,59.68
2022-08-20T09:39:38.210Z,59.51
2022-08-20T09:42:18.628Z,59.05
2022-08-20T09:44:48.746Z,59.30
2022-08-20T09:47:18.547Z,58.85
2022-08-20T09:49:48.625Z,58.58
2022-08-20T09:52:46.547Z,58.10
2022-08-20T09:55:57.241Z,58.02
2022-08-20T09:58:50.685Z,58.09
2022-08-20T10:01:22.635Z,58.52
2022-08-20T10:03:51.864Z,57.95
2022-08-20T10:06:21.804Z,57.22
2022-08-20T10:08:51.471Z,57.14
2022-08-20T10:11:20.606Z,56.94
2022-08-20T10:13:49.769Z,57.16
2022-08-20T10:16:19.477Z,56.73
2022-08-20T10:18:49.695Z,56.80
2022-08-20T10:21:18.998Z,57.69
2022-08-20T10:23:47.988Z,56.74
2022-08-20T10:26:17.868Z,57.49
2022-08-20T10:28:46.902Z,56.96
2022-08-20T10:31:17.327Z,57.08
2022-08-20T10:33:46.530Z,56.82
2022-08-20T10:36:18.373Z,56.15
2022-08-20T10:38:48.968Z,56.14
2022-08-20T10:41:18.228Z,57.08
2022-08-20T10:43:47.314Z,56.44
2022-08-20T10:46:18.046Z,56.88
2022-08-20T10:48:47.125Z,56.51
2022-08-20T10:51:17.160Z,56.41
2022-08-20T10:53:48.207Z,56.66
2022-08-20T10:56:17.411Z,56.09
2022-08-20T10:58:46.505Z,56.14
2022-08-20T11:01:28.774Z,55.51
2022-08-20T11:04:02.213Z,55.57
2022-08-20T11:06:34.591Z,55.79
2022-08-20T11:09:04.086Z,56.34
2022-08-20T11:11:36.822Z,56.61
2022-08-20T11:14:06.083Z,55.78
2022-08-20T11:16:37.205Z,55.04
2022-08-20T11:19:06.209Z,55.15
2022-08-20T11:21:36.280Z,56.16
2022-08-20T11:24:05.627Z,55.25
2022-08-20T11:26:34.826Z,55.18
2022-08-20T11:29:04.033Z,56.01
2022-08-20T11:31:33.215Z,56.12
2022-08-20T11:34:02.329Z,54.84
2022-08-20T11:36:32.019Z,55.41
2022-08-20T11:39:01.129Z,54.75
2022-08-20T11:41:30.014Z,53.93
2022-08-20T11:44:20.215Z,54.30
2022-08-20T11:46:51.093Z,53.49
2022-08-20T11:49:20.127Z,54.10
2022-08-20T11:51:50.287Z,53.61
2022-08-20T11:54:19.483Z,53.23
2022-08-20T11:56:50.111Z,53.14
2022-08-20T11:59:19.280Z,53.35
2022-08-20T12:02:02.828Z,53.80
2022-08-20T12:04:34.019Z,54.07
2022-08-20T12:07:20.887Z,53.02
2022-08-20T12:09:51.390Z,53.45
2022-08-20T12:12:26.955Z,52.89
2022-08-20T12:14:56.467Z,52.76
2022-08-20T12:17:30.898Z,53.15
2022-08-20T12:20:04.915Z,53.05
2022-08-20T12:22:34.024Z,53.32
2022-08-20T12:25:03.747Z,53.63
2022-08-20T12:27:36.630Z,53.87
2022-08-20T12:30:16.438Z,54.02
2022-08-20T12:32:45.846Z,54.51
2022-08-20T12:35:18.039Z,54.18
2022-08-20T12:37:47.768Z,54.63
2022-08-20T12:40:32.035Z,54.79
2022-08-20T12:43:04.284Z,54.13
2022-08-20T12:45:35.511Z,53.58
2022-08-20T12:48:12.519Z,53.46
2022-08-20T12:50:46.378Z,54.40
2022-08-20T12:53:15.577Z,54.69
2022-08-20T12:55:45.178Z,54.82
2022-08-20T12:58:14.289Z,55.09
2022-08-20T13:00:50.449Z,55.80
2022-08-20T13:03:21.424Z,55.82
2022-08-20T13:05:50.996Z,55.62
2022-08-20T13:08:20.184Z,55.97
2022-08-20T13:10:50.214Z,56.06
2022-08-20T13:13:21.111Z,56.51
2022-08-20T13:15:51.783Z,56.91
2022-08-20T13:18:21.283Z,57.28
2022-08-20T13:20:50.710Z,57.57
2022-08-20T13:23:20.719Z,57.74
2022-08-20T13:25:49.909Z,58.04
2022-08-20T13:28:18.891Z,58.36
2022-08-20T13:30:47.882Z,58.84
2022-08-20T13:33:16.929Z,59.13
2022-08-20T13:35:46.080Z,59.27
2022-08-20T13:38:17.362Z,59.49
2022-08-20T13:40:47.494Z,59.44
2022-08-20T13:43:18.218Z,59.75
2022-08-20T13:45:47.081Z,59.59
2022-08-20T13:48:16.376Z,60.09
2022-08-20T13:50:47.383Z,60.05
2022-08-20T13:53:17.647Z,60.13
2022-08-20T13:55:47.366Z,59.76
2022-08-20T13:58:17.795Z,60.42
2022-08-20T14:00:47.283Z,60.50
2022-08-20T14:03:17.757Z,60.54
2022-08-20T14:05:49.172Z,60.39
2022-08-20T14:08:25.244Z,60.40
2022-08-20T14:10:55.142Z,61.00
2022-08-20T14:13:27.102Z,61.37
2022-08-20T14:15:57.201Z,61.39
2022-08-20T14:18:26.420Z,61.12
2022-08-20T14:20:55.639Z,60.96
2022-08-20T14:23:24.706Z,60.91
2022-08-20T14:25:53.703Z,61.32
2022-08-20T14:28:25.064Z,68.92
2022-08-20T14:30:54.411Z,68.08
2022-08-20T14:33:25.101Z,61.10
2022-08-20T14:35:54.925Z,57.63
2022-08-20T14:38:24.211Z,58.43
2022-08-20T14:40:53.425Z,59.30
2022-08-20T14:43:22.625Z,65.83
2022-08-20T14:45:51.615Z,67.10
2022-08-20T14:48:20.688Z,64.49
2022-08-20T14:50:49.579Z,58.23
2022-08-20T14:53:22.579Z,56.43
2022-08-20T14:55:51.557Z,57.11
2022-08-20T14:58:21.087Z,58.96
2022-08-20T15:00:50.334Z,63.48
2022-08-20T15:03:21.525Z,64.45
2022-08-20T15:05:50.701Z,57.51
2022-08-20T15:08:19.612Z,56.23
2022-08-20T15:10:48.506Z,58.50
2022-08-20T15:13:17.493Z,63.23
2022-08-20T15:15:51.512Z,63.22
2022-08-20T15:18:25.209Z,62.42
2022-08-20T15:20:54.620Z,61.49
2022-08-20T15:23:24.441Z,61.34
2022-08-20T15:25:53.520Z,60.66
2022-08-20T15:28:23.073Z,60.87
2022-08-20T15:30:51.924Z,61.19
2022-08-20T15:33:20.813Z,61.20
2022-08-20T15:35:49.707Z,57.69
2022-08-20T15:38:19.213Z,57.14
2022-08-20T15:40:49.935Z,59.76
2022-08-20T15:43:18.976Z,66.27
2022-08-20T15:45:47.976Z,66.29
2022-08-20T15:48:22.675Z,64.25
2022-08-20T15:51:34.266Z,63.92
2022-08-20T15:54:10.821Z,64.20
2022-08-20T15:57:04.922Z,62.91
2022-08-20T15:59:54.799Z,63.65
2022-08-20T16:02:57.345Z,62.66
2022-08-20T16:06:04.352Z,62.46
2022-08-20T16:08:58.132Z,62.39
2022-08-20T16:11:50.007Z,62.14
2022-08-20T16:14:23.972Z,63.27
2022-08-20T16:17:06.362Z,62.11
2022-08-20T16:20:07.623Z,62.30
2022-08-20T16:22:44.417Z,61.87
2022-08-20T16:25:17.828Z,60.46
2022-08-20T16:28:03.787Z,60.99
2022-08-20T16:31:14.040Z,61.66
2022-08-20T16:34:46.533Z,61.62
2022-08-20T16:38:00.990Z,61.24
2022-08-20T16:40:57.285Z,61.22
2022-08-20T16:43:54.187Z,62.41
2022-08-20T16:46:37.793Z,62.08
2022-08-20T16:49:15.141Z,61.26
2022-08-20T16:51:52.957Z,61.94
2022-08-20T16:54:29.268Z,61.76
2022-08-20T16:57:06.921Z,61.56
2022-08-20T17:00:16.670Z,60.92
2022-08-20T17:03:10.294Z,60.86
2022-08-20T17:05:39.182Z,60.38
2022-08-20T17:08:22.206Z,61.27
2022-08-20T17:11:24.574Z,61.67
2022-08-20T17:14:08.145Z,61.74
2022-08-20T17:16:48.461Z,61.21
2022-08-20T17:19:29.670Z,61.95
2022-08-20T17:22:19.878Z,61.52
2022-08-20T17:24:49.662Z,59.96
2022-08-20T17:27:33.820Z,58.56
2022-08-20T17:30:37.195Z,63.62
2022-08-20T17:33:20.222Z,65.04
2022-08-20T17:36:05.186Z,63.29
2022-08-20T17:38:51.710Z,62.49
2022-08-20T17:41:33.248Z,61.74
2022-08-20T17:44:07.081Z,62.10
2022-08-20T17:46:52.385Z,61.94
2022-08-20T17:49:44.306Z,61.78
2022-08-20T17:52:59.289Z,61.75
2022-08-20T17:55:36.257Z,61.45
2022-08-20T17:58:17.136Z,61.55
2022-08-20T18:00:46.568Z,61.46
2022-08-20T18:03:22.764Z,61.22
2022-08-20T18:06:19.023Z,61.33
2022-08-20T18:09:35.524Z,61.97
2022-08-20T18:12:33.458Z,61.75
2022-08-20T18:15:24.688Z,62.13
2022-08-20T18:18:12.767Z,61.81
2022-08-20T18:21:37.262Z,62.12
2022-08-20T18:24:13.742Z,62.05
2022-08-20T18:29:47.144Z,61.59
2022-08-20T18:32:37.234Z,61.56
2022-08-20T18:35:38.709Z,61.21
2022-08-20T18:38:24.165Z,60.87
2022-08-20T18:40:55.385Z,61.09
2022-08-20T18:43:30.922Z,60.82
2022-08-20T18:46:30.070Z,60.23
2022-08-20T18:49:03.690Z,60.60
2022-08-20T18:51:43.194Z,61.11
2022-08-20T18:54:29.113Z,60.95
2022-08-20T18:57:40.563Z,60.69
2022-08-20T19:00:18.906Z,60.31
2022-08-20T19:03:22.705Z,60.12
2022-08-20T19:06:36.252Z,60.10
2022-08-20T19:09:16.196Z,58.94
2022-08-20T19:12:12.656Z,56.18
2022-08-20T19:15:14.202Z,62.78
2022-08-20T19:17:58.046Z,63.72
2022-08-20T19:20:35.527Z,62.49
2022-08-20T19:23:24.008Z,61.36
2022-08-20T19:26:25.186Z,61.46
2022-08-20T19:29:08.159Z,61.04
2022-08-20T19:31:38.413Z,61.79
2022-08-20T19:34:22.296Z,61.53
2022-08-20T19:37:09.181Z,61.46
2022-08-20T19:39:54.021Z,62.13
2022-08-20T19:42:36.608Z,61.28
2022-08-20T19:45:19.828Z,61.13
2022-08-20T19:48:09.218Z,60.19
2022-08-20T19:50:53.554Z,60.72
2022-08-20T19:53:35.606Z,60.72
2022-08-20T19:56:22.692Z,60.63
2022-08-20T19:59:07.267Z,60.05
2022-08-20T20:01:37.502Z,60.60
2022-08-20T20:04:17.700Z,60.39
2022-08-20T20:06:49.422Z,61.09
2022-08-20T20:09:28.771Z,61.04
2022-08-20T20:12:20.914Z,61.35
2022-08-20T20:14:55.720Z,60.61
2022-08-20T20:17:32.355Z,60.50
2022-08-20T20:20:19.564Z,60.47
2022-08-20T20:23:04.342Z,60.36
2022-08-20T20:25:35.383Z,60.39
2022-08-20T20:28:22.646Z,60.71
2022-08-20T20:30:54.597Z,61.15
2022-08-20T20:33:43.961Z,62.04
2022-08-20T20:36:41.347Z,61.48
2022-08-20T20:39:33.786Z,61.73
2022-08-20T20:42:09.082Z,62.71
2022-08-20T20:44:45.551Z,61.42
2022-08-20T20:47:36.098Z,60.62
2022-08-20T20:50:12.192Z,57.37
2022-08-20T20:52:56.810Z,56.70
2022-08-20T20:55:31.844Z,63.38
2022-08-20T20:58:03.088Z,65.17
2022-08-20T21:00:34.431Z,63.16
2022-08-20T21:03:04.425Z,62.06
2022-08-20T21:05:34.287Z,61.34
2022-08-20T21:08:08.607Z,60.74
2022-08-20T21:10:41.346Z,60.25
2022-08-20T21:13:12.504Z,60.13
2022-08-20T21:15:41.668Z,59.84
2022-08-20T21:18:11.928Z,57.57
2022-08-20T21:20:41.200Z,56.61
2022-08-20T21:23:10.233Z,63.39
2022-08-20T21:25:39.101Z,64.86
2022-08-20T21:28:09.764Z,63.11
2022-08-20T21:30:38.815Z,61.62
2022-08-20T21:33:07.928Z,61.13
2022-08-20T21:35:36.904Z,62.26
2022-08-20T21:38:06.408Z,61.79
2022-08-20T21:40:37.079Z,61.06
2022-08-20T21:43:07.011Z,61.13
2022-08-20T21:45:36.597Z,60.65
2022-08-20T21:48:08.317Z,60.80
2022-08-20T21:50:37.421Z,60.81
2022-08-20T21:53:12.760Z,60.48
2022-08-20T21:55:42.365Z,60.58
2022-08-20T21:58:12.987Z,60.96
2022-08-20T22:02:17.699Z,61.56
2022-08-20T22:06:12.581Z,61.73
2022-08-20T22:10:11.190Z,62.36
2022-08-20T22:14:03.771Z,62.55
2022-08-20T22:17:12.988Z,62.50
2022-08-20T22:21:06.376Z,61.05
2022-08-20T22:25:01.974Z,61.35
2022-08-20T22:29:00.192Z,62.04
2022-08-20T22:35:04.291Z,63.39
2022-08-20T22:38:17.262Z,62.82
2022-08-20T22:41:19.508Z,61.93
2022-08-20T22:44:26.909Z,62.47
2022-08-20T22:47:31.510Z,62.02
2022-08-20T22:50:36.289Z,61.88
2022-08-20T22:53:30.193Z,62.24
2022-08-20T22:59:33.679Z,61.13
2022-08-20T23:03:39.486Z,62.04
2022-08-20T23:09:52.864Z,62.27
2022-08-20T23:13:06.281Z,62.23
2022-08-20T23:16:09.964Z,62.36
2022-08-20T23:20:01.456Z,62.02
2022-08-20T23:23:07.163Z,62.34
2022-08-20T23:26:15.086Z,62.46
2022-08-20T23:29:22.574Z,62.61
2022-08-20T23:32:31.100Z,62.40
2022-08-20T23:35:36.063Z,62.13
2022-08-20T23:38:42.974Z,62.13
2022-08-20T23:44:49.870Z,62.47
2022-08-20T23:47:46.294Z,62.70
2022-08-20T23:51:36.947Z,62.85
2022-08-20T23:54:46.115Z,63.77
2022-08-20T23:58:38.687Z,63.42
